Main page
METAR-TAF:

METAR-TAF

Airports :

Ostend–Bruges International Airport

Ostend, Belgium

latitude: 51-12N, longitude: 002-52E, elevation: 4 m

Current weather observation

The report was made 24 minutes ago, at 04:20 UTC
Wind 6 kt from the South/Southwest
Temperature 9°C
Humidity 87%
Pressure 1001 hPa
Visibility 10 km or more
Few clouds at a height of 3600 ft

METAR: EBOS 240420Z 21006KT 9999 FEW036 09/07 Q1001 NOSIG

Time: 06:44 (04:44 UTC)

Forecast

The report was made 5 hours and 44 minutes ago, at 23:00 UTC
Forecast valid from 24 at 00 UTC to 25 at 06 UTC
Wind 18 kt from the West/Southwest with gusts up to 30 kt
Visibility 10 km or more
Scattered clouds at a height of 3000 ft
Probability 30% :
Temporary
from 24 at 11 UTC to 25 at 06 UTC
Visibility: 4000 m
Broken clouds at a height of 1400 ft, Cumulonimbus.
rain showers
Becoming
from 24 at 16 UTC to 24 at 18 UTC
Wind 11 kt from the South

TAF: EBOS 232300Z 2400/2506 25018G30KT 9999 SCT030 PROB30 TEMPO 2411/2506 4000 SHRA BKN014CB BECMG 2416/2418 19011KT

Weather observations and forecasts of more than 4000 airports (METAR and TAF reports).

The available stations are represented by yellow and red dots on the map.

Hover mouse over dot to see the name of the station.

Then click to see weather observations and forecasts.

To change the map : click on the green buttons with a black cross to zoom in, on the green button with a dash to zoom out, or on the green arrows for adjacent maps.


METAR-TAF: